createdAt,value
2017-06-14T00:00:49.835Z,0
2017-06-14T00:02:05.325Z,0
2017-06-14T00:03:20.773Z,0
2017-06-14T00:04:36.214Z,0
2017-06-14T00:05:51.656Z,0
2017-06-14T00:07:05.808Z,0
2017-06-14T00:08:21.757Z,0
2017-06-14T00:09:35.935Z,0
2017-06-14T00:10:51.351Z,0
2017-06-14T00:12:06.804Z,0
2017-06-14T00:13:22.215Z,0
2017-06-14T00:14:36.416Z,0
2017-06-14T00:15:52.045Z,0
2017-06-14T00:17:07.506Z,0
2017-06-14T00:18:22.941Z,0
2017-06-14T00:19:35.846Z,0
2017-06-14T00:20:51.288Z,0
2017-06-14T00:22:06.756Z,0
2017-06-14T00:23:22.259Z,0
2017-06-14T00:24:37.728Z,0
2017-06-14T00:25:53.182Z,0
2017-06-14T00:27:08.582Z,0
2017-06-14T00:28:24.022Z,0
2017-06-14T00:29:38.142Z,0
2017-06-14T00:30:53.193Z,0
2017-06-14T00:32:08.668Z,0
2017-06-14T00:33:24.208Z,0
2017-06-14T00:34:39.631Z,0
2017-06-14T00:35:55.453Z,0
2017-06-14T00:37:09.556Z,0
2017-06-14T00:38:25.162Z,0
2017-06-14T00:39:40.855Z,0
2017-06-14T00:40:56.271Z,0
2017-06-14T00:42:11.665Z,0
2017-06-14T00:43:27.329Z,0
2017-06-14T00:44:42.817Z,0
2017-06-14T00:45:58.248Z,0
2017-06-14T00:47:13.728Z,0
2017-06-14T00:48:29.159Z,0
2017-06-14T00:49:44.605Z,0
2017-06-14T00:51:00.045Z,0
2017-06-14T00:52:15.473Z,0
2017-06-14T00:53:30.948Z,0
2017-06-14T00:54:46.441Z,0
2017-06-14T00:56:02.030Z,0
2017-06-14T00:57:17.537Z,0
2017-06-14T00:58:33.007Z,0
2017-06-14T00:59:48.304Z,0
2017-06-14T01:01:02.477Z,0
2017-06-14T01:02:18.055Z,0
2017-06-14T01:03:32.056Z,0
2017-06-14T01:04:46.102Z,0
2017-06-14T01:06:01.550Z,0
2017-06-14T01:07:17.023Z,0
2017-06-14T01:08:32.494Z,0
2017-06-14T01:09:47.982Z,0
2017-06-14T01:11:03.422Z,0
2017-06-14T01:12:18.931Z,0
2017-06-14T01:13:33.939Z,0
2017-06-14T01:14:48.123Z,0
2017-06-14T01:16:02.064Z,0
2017-06-14T01:17:17.628Z,0
2017-06-14T01:18:33.190Z,0
2017-06-14T01:19:47.345Z,0
2017-06-14T01:21:02.816Z,0
2017-06-14T01:22:16.940Z,0
2017-06-14T01:24:03.065Z,0
2017-06-14T01:25:18.526Z,0
2017-06-14T01:26:34.150Z,0
2017-06-14T01:27:49.613Z,0
2017-06-14T01:29:05.083Z,0
2017-06-14T01:30:20.548Z,0
2017-06-14T01:31:34.700Z,0
2017-06-14T01:32:50.148Z,0
2017-06-14T01:34:05.593Z,0
2017-06-14T01:35:21.022Z,0
2017-06-14T01:36:36.469Z,0
2017-06-14T01:37:52.093Z,0
2017-06-14T01:39:06.223Z,0
2017-06-14T01:40:21.695Z,0
2017-06-14T01:41:37.127Z,0
2017-06-14T01:42:51.299Z,0
2017-06-14T01:44:06.757Z,0
2017-06-14T01:45:22.162Z,0
2017-06-14T01:46:37.605Z,0
2017-06-14T01:47:51.850Z,0
2017-06-14T01:49:07.419Z,0
2017-06-14T01:50:22.870Z,0
2017-06-14T01:51:38.471Z,0
2017-06-14T01:53:07.372Z,0
2017-06-14T01:54:21.492Z,0
2017-06-14T01:55:36.922Z,0
2017-06-14T01:56:51.021Z,0
2017-06-14T01:58:06.456Z,0
2017-06-14T01:59:20.651Z,0
2017-06-14T02:00:32.282Z,0
2017-06-14T02:01:47.694Z,0
2017-06-14T02:03:03.100Z,0
2017-06-14T02:04:18.573Z,0
2017-06-14T02:05:32.801Z,0
2017-06-14T02:06:48.222Z,0
2017-06-14T02:08:03.685Z,0
2017-06-14T02:09:17.809Z,0
2017-06-14T02:10:33.240Z,0
2017-06-14T02:11:48.929Z,0
2017-06-14T02:13:04.337Z,0
2017-06-14T02:14:19.815Z,0
2017-06-14T02:15:35.218Z,0
2017-06-14T02:16:49.352Z,0
2017-06-14T02:18:03.443Z,0
2017-06-14T02:19:18.892Z,0
2017-06-14T02:20:34.556Z,0
2017-06-14T02:21:50.218Z,0
2017-06-14T02:23:05.712Z,0
2017-06-14T02:24:21.235Z,0
2017-06-14T02:25:36.831Z,0
2017-06-14T02:26:52.282Z,0
2017-06-14T02:28:07.725Z,0
2017-06-14T02:29:22.837Z,0
2017-06-14T02:30:38.302Z,0
2017-06-14T02:31:53.810Z,0
2017-06-14T02:33:08.195Z,0
2017-06-14T02:34:23.636Z,0
2017-06-14T02:35:39.081Z,0
2017-06-14T02:36:54.713Z,0
2017-06-14T02:38:08.949Z,0
2017-06-14T02:39:24.445Z,0
2017-06-14T02:40:39.832Z,0
2017-06-14T02:41:55.242Z,5
2017-06-14T02:43:10.648Z,5
2017-06-14T02:44:24.855Z,5
2017-06-14T02:45:39.013Z,5
2017-06-14T02:46:54.529Z,5
2017-06-14T02:48:10.014Z,5
2017-06-14T02:49:25.439Z,5
2017-06-14T02:50:39.565Z,10
2017-06-14T02:51:55.000Z,10
2017-06-14T02:53:10.436Z,10
2017-06-14T02:54:25.935Z,10
2017-06-14T02:55:41.032Z,10
2017-06-14T02:56:56.469Z,15
2017-06-14T02:58:11.931Z,15
2017-06-14T02:59:27.368Z,15
2017-06-14T03:00:41.513Z,15
2017-06-14T03:01:56.897Z,20
2017-06-14T03:03:12.334Z,20
2017-06-14T03:04:27.393Z,20
2017-06-14T03:05:42.803Z,20
2017-06-14T03:06:58.241Z,25
2017-06-14T03:08:13.722Z,25
2017-06-14T03:09:29.181Z,25
2017-06-14T03:10:44.686Z,30
2017-06-14T03:11:59.121Z,30
2017-06-14T03:13:14.227Z,30
2017-06-14T03:14:29.696Z,35
2017-06-14T03:15:58.797Z,35
2017-06-14T03:17:14.436Z,35
2017-06-14T03:18:29.912Z,40
2017-06-14T03:19:45.205Z,40
2017-06-14T03:21:00.678Z,40
2017-06-14T03:22:13.370Z,45
2017-06-14T03:23:29.041Z,45
2017-06-14T03:24:44.538Z,45
2017-06-14T03:26:00.006Z,50
2017-06-14T03:27:15.440Z,50
2017-06-14T03:28:31.436Z,55
2017-06-14T03:29:46.902Z,55
2017-06-14T03:31:02.472Z,55
2017-06-14T03:32:16.800Z,60
2017-06-14T03:33:32.252Z,60
2017-06-14T03:34:47.758Z,60
2017-06-14T03:36:03.308Z,65
2017-06-14T03:37:18.949Z,65
2017-06-14T03:38:34.418Z,65
2017-06-14T03:39:50.091Z,70
2017-06-14T03:41:05.636Z,70
2017-06-14T03:42:21.100Z,75
2017-06-14T03:43:33.769Z,75
2017-06-14T03:44:46.714Z,75
2017-06-14T03:46:02.283Z,80
2017-06-14T03:47:17.738Z,85
2017-06-14T03:48:33.383Z,85
2017-06-14T03:49:49.052Z,90
2017-06-14T03:51:04.509Z,90
2017-06-14T03:52:18.591Z,90
2017-06-14T03:53:33.997Z,95
2017-06-14T03:54:48.014Z,95
2017-06-14T03:56:03.485Z,100
2017-06-14T03:57:19.154Z,100
2017-06-14T03:58:34.617Z,100
2017-06-14T03:59:50.234Z,100
2017-06-14T04:01:05.768Z,105
2017-06-14T04:02:21.424Z,105
2017-06-14T04:03:36.907Z,105
2017-06-14T04:04:52.341Z,105
2017-06-14T04:06:07.812Z,105
2017-06-14T04:07:23.224Z,110
2017-06-14T04:08:38.715Z,110
2017-06-14T04:09:54.108Z,110
2017-06-14T04:11:09.604Z,115
2017-06-14T04:12:25.258Z,115
2017-06-14T04:13:39.466Z,115
2017-06-14T04:14:54.926Z,115
2017-06-14T04:16:10.414Z,120
2017-06-14T04:17:25.848Z,120
2017-06-14T04:18:41.298Z,120
2017-06-14T04:19:56.719Z,120
2017-06-14T04:21:11.820Z,125
2017-06-14T04:22:27.495Z,125
2017-06-14T04:23:42.944Z,125
2017-06-14T04:24:57.045Z,130
2017-06-14T04:26:11.242Z,130
2017-06-14T04:27:26.826Z,135
2017-06-14T04:28:42.254Z,135
2017-06-14T04:29:57.916Z,135
2017-06-14T04:31:13.562Z,135
2017-06-14T04:32:29.028Z,140
2017-06-14T04:33:44.464Z,140
2017-06-14T04:34:59.935Z,145
2017-06-14T04:36:15.444Z,145
2017-06-14T04:37:29.596Z,145
2017-06-14T04:38:45.199Z,145
2017-06-14T04:39:58.944Z,145
2017-06-14T04:41:13.087Z,150
2017-06-14T04:42:28.473Z,150
2017-06-14T04:43:43.904Z,150
2017-06-14T04:44:59.366Z,150
2017-06-14T04:46:15.043Z,155
2017-06-14T04:47:30.502Z,155
2017-06-14T04:48:45.968Z,160
2017-06-14T04:50:01.491Z,160
2017-06-14T04:51:15.242Z,160
2017-06-14T04:52:30.723Z,160
2017-06-14T04:53:45.901Z,160
2017-06-14T04:55:00.979Z,160
2017-06-14T04:56:16.622Z,165
2017-06-14T04:57:32.079Z,165
2017-06-14T04:58:46.220Z,165
2017-06-14T05:00:01.682Z,165
2017-06-14T05:01:17.145Z,170
2017-06-14T05:02:32.608Z,170
2017-06-14T05:03:48.107Z,170
2017-06-14T05:05:02.114Z,175
2017-06-14T05:06:17.573Z,175
2017-06-14T05:07:33.051Z,180
2017-06-14T05:08:48.545Z,180
2017-06-14T05:10:04.017Z,165
2017-06-14T05:11:18.188Z,180
2017-06-14T05:12:33.696Z,180
2017-06-14T05:13:47.900Z,180
2017-06-14T05:15:03.512Z,185
2017-06-14T05:16:18.959Z,190
2017-06-14T05:17:34.385Z,190
2017-06-14T05:18:49.872Z,190
2017-06-14T05:20:05.314Z,195
2017-06-14T05:21:20.827Z,195
2017-06-14T05:22:36.296Z,195
2017-06-14T05:23:51.773Z,195
2017-06-14T05:25:07.240Z,195
2017-06-14T05:26:22.710Z,195
2017-06-14T05:27:38.196Z,200
2017-06-14T05:28:53.633Z,205
2017-06-14T05:30:07.825Z,205
2017-06-14T05:31:22.012Z,205
2017-06-14T05:32:37.520Z,210
2017-06-14T05:33:52.958Z,210
2017-06-14T05:35:22.123Z,215
2017-06-14T05:36:37.534Z,210
2017-06-14T05:37:52.946Z,220
2017-06-14T05:39:08.401Z,225
2017-06-14T05:40:23.863Z,225
2017-06-14T05:41:39.294Z,225
2017-06-14T05:42:55.002Z,230
2017-06-14T05:44:09.000Z,250
2017-06-14T05:45:24.460Z,265
2017-06-14T05:46:39.976Z,215
2017-06-14T05:47:54.161Z,275
2017-06-14T05:49:09.584Z,270
2017-06-14T05:50:25.341Z,315
2017-06-14T05:51:40.788Z,230
2017-06-14T05:52:56.245Z,265
2017-06-14T05:54:11.734Z,310
2017-06-14T05:55:27.200Z,220
2017-06-14T05:56:42.639Z,200
2017-06-14T05:57:58.129Z,205
2017-06-14T05:59:13.671Z,245
2017-06-14T06:00:29.148Z,265
2017-06-14T06:01:44.641Z,270
2017-06-14T06:02:58.769Z,270
2017-06-14T06:04:14.225Z,255
2017-06-14T06:05:28.374Z,265
2017-06-14T06:06:43.810Z,255
2017-06-14T06:07:59.256Z,260
2017-06-14T06:09:14.732Z,260
2017-06-14T06:10:28.893Z,255
2017-06-14T06:11:44.353Z,245
2017-06-14T06:12:58.694Z,215
2017-06-14T06:14:14.173Z,215
2017-06-14T06:15:29.806Z,270
2017-06-14T06:16:45.331Z,235
2017-06-14T06:18:00.941Z,270
2017-06-14T06:19:16.507Z,245
2017-06-14T06:20:32.009Z,225
2017-06-14T06:21:47.685Z,220
2017-06-14T06:23:03.204Z,220
2017-06-14T06:24:18.684Z,215
2017-06-14T06:25:34.167Z,220
2017-06-14T06:26:47.968Z,230
2017-06-14T06:28:03.418Z,230
2017-06-14T06:29:18.847Z,235
2017-06-14T06:30:32.978Z,270
2017-06-14T06:31:47.135Z,325
2017-06-14T06:33:01.311Z,310
2017-06-14T06:34:16.794Z,325
2017-06-14T06:35:30.922Z,315
2017-06-14T06:36:46.398Z,395
2017-06-14T06:38:01.574Z,425
2017-06-14T06:39:17.003Z,450
2017-06-14T06:40:31.246Z,505
2017-06-14T06:41:46.728Z,575
2017-06-14T06:43:02.204Z,585
2017-06-14T06:44:17.606Z,525
2017-06-14T06:45:33.087Z,455
2017-06-14T06:46:48.538Z,490
2017-06-14T06:48:02.660Z,480
2017-06-14T06:49:18.123Z,420
2017-06-14T06:50:33.564Z,415
2017-06-14T06:51:49.210Z,525
2017-06-14T06:53:04.664Z,545
2017-06-14T06:54:20.325Z,500
2017-06-14T06:55:35.881Z,540
2017-06-14T06:56:49.990Z,555
2017-06-14T06:58:05.464Z,520
2017-06-14T06:59:20.985Z,520
2017-06-14T07:00:36.572Z,435
2017-06-14T07:01:52.006Z,350
2017-06-14T07:03:07.456Z,390
2017-06-14T07:04:21.577Z,420
2017-06-14T07:05:35.670Z,410
2017-06-14T07:06:51.142Z,420
2017-06-14T07:08:06.630Z,440
2017-06-14T07:09:22.085Z,410
2017-06-14T07:10:37.626Z,435
2017-06-14T07:11:51.777Z,410
2017-06-14T07:13:07.261Z,425
2017-06-14T07:14:22.710Z,480
2017-06-14T07:15:36.749Z,420
2017-06-14T07:16:52.224Z,395
2017-06-14T07:18:07.668Z,385
2017-06-14T07:19:23.147Z,380
2017-06-14T07:20:38.639Z,485
2017-06-14T07:21:51.517Z,490
2017-06-14T07:23:06.999Z,475
2017-06-14T07:24:22.622Z,465
2017-06-14T07:25:37.705Z,380
2017-06-14T07:26:53.185Z,370
2017-06-14T07:28:08.678Z,370
2017-06-14T07:29:23.823Z,460
2017-06-14T07:30:39.338Z,600
2017-06-14T07:31:54.779Z,635
2017-06-14T07:33:10.229Z,560
2017-06-14T07:34:25.725Z,475
2017-06-14T07:35:41.169Z,440
2017-06-14T07:36:56.613Z,415
2017-06-14T07:38:12.052Z,410
2017-06-14T07:39:27.516Z,350
2017-06-14T07:40:43.035Z,310
2017-06-14T07:41:58.506Z,335
2017-06-14T07:43:13.953Z,335
2017-06-14T07:44:29.520Z,340
2017-06-14T07:45:44.969Z,350
2017-06-14T07:47:00.441Z,355
2017-06-14T07:48:15.891Z,360
2017-06-14T07:49:31.361Z,365
2017-06-14T07:50:46.920Z,390
2017-06-14T07:52:02.506Z,370
2017-06-14T07:53:17.918Z,355
2017-06-14T07:54:33.419Z,395
2017-06-14T07:55:48.835Z,395
2017-06-14T07:57:02.864Z,410
2017-06-14T07:58:18.316Z,405
2017-06-14T07:59:33.768Z,410
2017-06-14T08:00:49.202Z,435
2017-06-14T08:02:04.673Z,455
2017-06-14T08:03:18.880Z,465
2017-06-14T08:04:34.442Z,485
2017-06-14T08:05:49.882Z,550
2017-06-14T08:07:05.376Z,625
2017-06-14T08:08:20.696Z,675
2017-06-14T08:09:36.155Z,725
2017-06-14T08:10:51.591Z,730
2017-06-14T08:12:03.011Z,585
2017-06-14T08:13:18.488Z,500
2017-06-14T08:14:33.598Z,530
2017-06-14T08:15:49.063Z,475
2017-06-14T08:17:04.592Z,390
2017-06-14T08:18:33.484Z,425
2017-06-14T08:19:48.930Z,445
2017-06-14T08:21:04.577Z,465
2017-06-14T08:22:20.072Z,485
2017-06-14T08:23:35.582Z,470
2017-06-14T08:24:51.036Z,520
2017-06-14T08:26:06.479Z,460
2017-06-14T08:27:22.163Z,480
2017-06-14T08:28:37.574Z,510
2017-06-14T08:29:51.741Z,530
2017-06-14T08:31:07.382Z,575
2017-06-14T08:32:21.498Z,660
2017-06-14T08:33:36.876Z,690
2017-06-14T08:34:51.333Z,645
2017-06-14T08:36:05.480Z,565
2017-06-14T08:37:20.929Z,545
2017-06-14T08:38:36.380Z,570
2017-06-14T08:39:51.793Z,565
2017-06-14T08:41:07.414Z,580
2017-06-14T08:42:22.920Z,895
2017-06-14T08:43:38.356Z,2005
2017-06-14T08:44:53.843Z,2860
2017-06-14T08:46:08.003Z,1370
2017-06-14T08:47:23.483Z,2635
2017-06-14T08:48:38.938Z,2640
2017-06-14T08:49:53.131Z,2285
2017-06-14T08:51:08.605Z,1185
2017-06-14T08:52:22.958Z,695
2017-06-14T08:53:38.454Z,615
2017-06-14T08:54:54.072Z,465
2017-06-14T08:56:09.554Z,560
2017-06-14T08:57:23.893Z,570
2017-06-14T08:59:10.183Z,590
2017-06-14T09:00:25.748Z,610
2017-06-14T09:01:41.291Z,1290
2017-06-14T09:02:56.501Z,2835
2017-06-14T09:04:12.215Z,3685
2017-06-14T09:05:27.692Z,4085
2017-06-14T09:06:43.113Z,4445
2017-06-14T09:07:58.808Z,4405
2017-06-14T09:09:14.273Z,3855
2017-06-14T09:10:29.927Z,3425
2017-06-14T09:11:45.354Z,3145
2017-06-14T09:13:00.890Z,1895
2017-06-14T09:14:16.334Z,680
2017-06-14T09:15:31.738Z,2940
2017-06-14T09:16:47.208Z,2770
2017-06-14T09:18:02.855Z,2740
2017-06-14T09:19:18.556Z,2815
2017-06-14T09:20:34.010Z,2935
2017-06-14T09:21:48.180Z,3105
2017-06-14T09:23:03.662Z,3225
2017-06-14T09:24:19.146Z,3605
2017-06-14T09:25:33.278Z,4025
2017-06-14T09:26:48.737Z,4310
2017-06-14T09:28:04.206Z,4345
2017-06-14T09:29:19.739Z,4305
2017-06-14T09:30:35.370Z,4065
2017-06-14T09:32:04.264Z,3845
2017-06-14T09:33:20.042Z,3860
2017-06-14T09:34:35.517Z,3720
2017-06-14T09:35:50.989Z,3875
2017-06-14T09:37:06.494Z,3755
2017-06-14T09:38:22.031Z,3615
2017-06-14T09:39:37.559Z,3605
2017-06-14T09:40:53.136Z,3815
2017-06-14T09:42:08.689Z,4095
2017-06-14T09:43:24.298Z,4205
2017-06-14T09:44:38.437Z,4345
2017-06-14T09:45:53.966Z,4475
2017-06-14T09:47:09.605Z,4375
2017-06-14T09:48:25.076Z,4365
2017-06-14T09:49:40.490Z,4440
2017-06-14T09:50:56.110Z,4455
2017-06-14T09:52:11.611Z,4435
2017-06-14T09:53:27.136Z,4240
2017-06-14T09:54:42.640Z,3970
2017-06-14T09:55:58.120Z,4215
2017-06-14T09:57:13.812Z,4065
2017-06-14T09:58:29.292Z,4140
2017-06-14T09:59:44.799Z,4345
2017-06-14T10:01:00.225Z,4140
2017-06-14T10:02:14.376Z,4325
2017-06-14T10:03:29.855Z,3710
2017-06-14T10:04:45.488Z,3760
2017-06-14T10:06:00.991Z,3415
2017-06-14T10:07:16.491Z,3510
2017-06-14T10:08:32.042Z,3780
2017-06-14T10:10:18.357Z,4160
2017-06-14T10:11:33.893Z,4380
2017-06-14T10:12:49.594Z,4520
2017-06-14T10:14:05.047Z,4550
2017-06-14T10:15:19.296Z,4660
2017-06-14T10:16:34.782Z,4455
2017-06-14T10:17:50.259Z,4275
2017-06-14T10:19:05.716Z,4475
2017-06-14T10:20:18.593Z,4850
2017-06-14T10:21:34.056Z,5210
2017-06-14T10:22:49.588Z,5445
2017-06-14T10:24:05.049Z,5450
2017-06-14T10:25:20.719Z,5310
2017-06-14T10:26:36.193Z,5190
2017-06-14T10:27:50.428Z,5230
2017-06-14T10:29:05.901Z,5545
2017-06-14T10:30:21.545Z,5935
2017-06-14T10:31:37.014Z,6100
2017-06-14T10:32:52.509Z,5945
2017-06-14T10:34:07.975Z,5585
2017-06-14T10:35:23.439Z,5185
2017-06-14T10:36:38.949Z,4955
2017-06-14T10:37:54.483Z,5030
2017-06-14T10:39:09.978Z,5255
2017-06-14T10:40:25.512Z,5400
2017-06-14T10:41:40.986Z,5435
2017-06-14T10:42:56.487Z,5365
2017-06-14T10:44:11.976Z,5295
2017-06-14T10:45:27.452Z,5280
2017-06-14T10:46:42.866Z,5195
2017-06-14T10:47:58.382Z,5135
2017-06-14T10:49:13.884Z,5000
2017-06-14T10:50:27.945Z,4755
2017-06-14T10:51:43.419Z,4770
2017-06-14T10:52:58.937Z,5090
2017-06-14T10:54:14.609Z,5435
2017-06-14T10:55:30.034Z,5460
2017-06-14T10:56:44.289Z,5660
2017-06-14T10:57:59.947Z,5520
2017-06-14T10:59:15.600Z,5200
2017-06-14T11:00:31.316Z,5025
2017-06-14T11:01:45.578Z,5215
2017-06-14T11:03:00.762Z,5590
2017-06-14T11:04:16.343Z,5860
2017-06-14T11:05:31.813Z,5410
2017-06-14T11:06:47.383Z,5295
2017-06-14T11:08:02.867Z,5540
2017-06-14T11:09:17.078Z,5360
2017-06-14T11:10:32.551Z,5480
2017-06-14T11:11:48.046Z,5575
2017-06-14T11:13:03.524Z,5615
2017-06-14T11:14:18.988Z,5460
2017-06-14T11:15:34.456Z,5230
2017-06-14T11:16:48.663Z,4855
2017-06-14T11:18:04.159Z,4745
2017-06-14T11:19:19.670Z,4825
2017-06-14T11:20:35.164Z,4895
2017-06-14T11:21:50.811Z,5005
2017-06-14T11:23:06.318Z,4995
2017-06-14T11:24:21.814Z,5055
2017-06-14T11:25:37.262Z,5275
2017-06-14T11:26:52.753Z,5480
2017-06-14T11:28:06.923Z,5710
2017-06-14T11:29:22.408Z,5775
2017-06-14T11:30:37.917Z,5645
2017-06-14T11:31:53.502Z,5335
2017-06-14T11:33:09.006Z,5165
2017-06-14T11:34:24.538Z,5245
2017-06-14T11:35:40.047Z,5390
2017-06-14T11:36:54.071Z,5485
2017-06-14T11:38:08.239Z,5415
2017-06-14T11:39:23.723Z,4985
2017-06-14T11:40:39.193Z,4480
2017-06-14T11:41:54.874Z,4190
2017-06-14T11:43:10.378Z,4395
2017-06-14T11:44:25.907Z,4965
2017-06-14T11:45:41.383Z,5460
2017-06-14T11:46:56.875Z,5615
2017-06-14T11:48:10.918Z,5495
2017-06-14T11:49:26.436Z,5130
2017-06-14T11:50:40.552Z,4770
2017-06-14T11:51:56.040Z,4650
2017-06-14T11:53:10.218Z,4490
2017-06-14T11:54:24.409Z,4440
2017-06-14T11:56:06.011Z,4685
2017-06-14T11:57:21.529Z,5015
2017-06-14T11:58:35.607Z,5245
2017-06-14T11:59:51.098Z,5310
2017-06-14T12:01:06.760Z,5065
2017-06-14T12:02:22.384Z,5155
2017-06-14T12:03:37.871Z,4965
2017-06-14T12:04:53.490Z,4930
2017-06-14T12:06:09.015Z,4675
2017-06-14T12:07:24.561Z,4900
2017-06-14T12:08:40.119Z,5280
2017-06-14T12:09:55.557Z,5120
2017-06-14T12:11:11.038Z,4730
2017-06-14T12:12:25.203Z,4255
2017-06-14T12:13:40.697Z,4005
2017-06-14T12:14:56.216Z,4270
2017-06-14T12:16:11.788Z,4595
2017-06-14T12:17:27.276Z,4920
2017-06-14T12:18:42.773Z,5080
2017-06-14T12:19:58.412Z,5045
2017-06-14T12:21:14.112Z,4940
2017-06-14T12:22:28.320Z,4590
2017-06-14T12:23:43.798Z,4170
2017-06-14T12:24:59.336Z,4035
2017-06-14T12:26:15.011Z,4190
2017-06-14T12:27:30.539Z,4585
2017-06-14T12:28:46.043Z,4905
2017-06-14T12:30:01.834Z,4920
2017-06-14T12:31:17.014Z,4865
2017-06-14T12:32:46.322Z,4255
2017-06-14T12:33:59.064Z,3960
2017-06-14T12:35:14.558Z,3730
2017-06-14T12:36:30.063Z,3925
2017-06-14T12:37:45.585Z,4535
2017-06-14T12:39:01.016Z,4715
2017-06-14T12:40:16.664Z,4865
2017-06-14T12:41:32.339Z,4735
2017-06-14T12:42:46.520Z,4770
2017-06-14T12:44:00.939Z,4715
2017-06-14T12:45:15.167Z,4680
2017-06-14T12:46:30.759Z,4550
2017-06-14T12:47:46.237Z,4295
2017-06-14T12:49:01.865Z,4165
2017-06-14T12:50:17.504Z,3905
2017-06-14T12:51:33.193Z,4230
2017-06-14T12:52:48.694Z,4470
2017-06-14T12:54:04.178Z,4520
2017-06-14T12:55:18.039Z,4305
2017-06-14T12:56:33.836Z,3950
2017-06-14T12:57:49.436Z,3790
2017-06-14T12:59:05.082Z,3895
2017-06-14T13:00:20.774Z,4355
2017-06-14T13:01:36.275Z,4460
2017-06-14T13:02:51.917Z,4410
2017-06-14T13:04:07.409Z,4280
2017-06-14T13:05:22.913Z,4035
2017-06-14T13:06:38.594Z,3735
2017-06-14T13:07:54.246Z,3825
2017-06-14T13:09:09.979Z,3875
2017-06-14T13:10:25.459Z,4010
2017-06-14T13:11:40.982Z,4040
2017-06-14T13:12:56.624Z,3910
2017-06-14T13:14:12.106Z,3835
2017-06-14T13:15:26.241Z,3780
2017-06-14T13:16:40.300Z,3855
2017-06-14T13:17:55.932Z,4130
2017-06-14T13:19:10.140Z,4310
2017-06-14T13:20:25.662Z,4480
2017-06-14T13:21:41.160Z,4410
2017-06-14T13:22:56.827Z,4360
2017-06-14T13:24:12.560Z,4190
2017-06-14T13:25:28.233Z,4080
2017-06-14T13:26:43.677Z,4145
2017-06-14T13:27:59.255Z,4300
2017-06-14T13:29:14.960Z,4390
2017-06-14T13:30:30.543Z,4560
2017-06-14T13:31:45.972Z,4615
2017-06-14T13:33:01.583Z,4730
2017-06-14T13:34:17.098Z,4790
2017-06-14T13:35:32.610Z,4835
2017-06-14T13:36:48.154Z,4645
2017-06-14T13:38:02.362Z,4300
2017-06-14T13:39:17.943Z,3950
2017-06-14T13:40:33.442Z,3645
2017-06-14T13:41:48.941Z,3455
2017-06-14T13:43:04.881Z,3410
2017-06-14T13:44:20.427Z,3520
2017-06-14T13:45:35.595Z,3135
2017-06-14T13:46:51.062Z,4220
2017-06-14T13:48:06.677Z,4400
2017-06-14T13:49:22.231Z,4400
2017-06-14T13:50:37.723Z,4170
2017-06-14T13:51:53.208Z,3880
2017-06-14T13:53:08.708Z,3590
2017-06-14T13:54:24.600Z,3500
2017-06-14T13:55:40.138Z,3505
2017-06-14T13:56:55.637Z,3475
2017-06-14T13:58:11.343Z,3255
2017-06-14T13:59:25.410Z,3175
2017-06-14T14:00:41.207Z,3180
2017-06-14T14:01:56.732Z,3190
2017-06-14T14:03:12.209Z,3400
2017-06-14T14:04:27.707Z,3615
2017-06-14T14:05:41.887Z,3570
2017-06-14T14:06:57.567Z,3300
2017-06-14T14:08:13.054Z,3030
2017-06-14T14:09:28.700Z,2690
2017-06-14T14:10:44.175Z,2980
2017-06-14T14:11:59.680Z,3110
2017-06-14T14:13:15.340Z,3065
2017-06-14T14:14:30.847Z,2780
2017-06-14T14:15:46.291Z,2585
2017-06-14T14:17:00.664Z,2420
2017-06-14T14:18:16.182Z,2545
2017-06-14T14:19:31.725Z,2830
2017-06-14T14:20:47.225Z,3130
2017-06-14T14:22:01.276Z,3380
2017-06-14T14:23:16.763Z,3235
2017-06-14T14:24:30.895Z,2855
2017-06-14T14:25:45.121Z,2515
2017-06-14T14:27:00.774Z,2365
2017-06-14T14:28:16.273Z,2765
2017-06-14T14:29:31.842Z,3310
2017-06-14T14:30:47.309Z,3530
2017-06-14T14:32:01.505Z,3385
2017-06-14T14:33:17.084Z,3050
2017-06-14T14:34:32.610Z,3030
2017-06-14T14:35:48.103Z,3270
2017-06-14T14:37:03.553Z,3055
2017-06-14T14:38:19.073Z,2715
2017-06-14T14:39:34.601Z,2370
2017-06-14T14:40:50.062Z,2105
2017-06-14T14:42:05.669Z,2335
2017-06-14T14:43:21.452Z,2850
2017-06-14T14:44:36.962Z,3340
2017-06-14T14:45:52.460Z,3490
2017-06-14T14:47:07.998Z,2960
2017-06-14T14:48:23.480Z,2600
2017-06-14T14:49:39.100Z,2725
2017-06-14T14:50:53.203Z,2915
2017-06-14T14:52:08.708Z,2680
2017-06-14T14:53:24.401Z,2280
2017-06-14T14:54:39.900Z,2255
2017-06-14T14:55:54.094Z,2590
2017-06-14T14:57:09.688Z,2900
2017-06-14T14:58:38.729Z,2560
2017-06-14T14:59:54.172Z,2910
2017-06-14T15:01:09.668Z,2640
2017-06-14T15:02:25.229Z,1820
2017-06-14T15:03:40.733Z,865
2017-06-14T15:04:56.389Z,570
2017-06-14T15:06:11.904Z,530
2017-06-14T15:07:27.367Z,510
2017-06-14T15:08:42.875Z,490
2017-06-14T15:09:58.400Z,480
2017-06-14T15:11:12.552Z,455
2017-06-14T15:12:28.046Z,450
2017-06-14T15:13:43.564Z,435
2017-06-14T15:14:59.174Z,425
2017-06-14T15:16:14.664Z,420
2017-06-14T15:17:30.365Z,415
2017-06-14T15:18:45.882Z,420
2017-06-14T15:20:01.350Z,410
2017-06-14T15:21:16.754Z,405
2017-06-14T15:22:32.374Z,405
2017-06-14T15:23:46.407Z,410
2017-06-14T15:25:01.890Z,400
2017-06-14T15:26:17.412Z,395
2017-06-14T15:27:32.915Z,395
2017-06-14T15:28:48.681Z,395
2017-06-14T15:30:04.222Z,390
2017-06-14T15:31:19.759Z,380
2017-06-14T15:32:35.270Z,375
2017-06-14T15:33:49.456Z,370
2017-06-14T15:35:03.833Z,370
2017-06-14T15:36:19.298Z,365
2017-06-14T15:37:34.930Z,365
2017-06-14T15:38:50.429Z,365
2017-06-14T15:40:06.113Z,365
2017-06-14T15:41:21.630Z,365
2017-06-14T15:42:37.357Z,360
2017-06-14T15:43:52.616Z,355
2017-06-14T15:45:08.215Z,355
2017-06-14T15:46:23.863Z,355
2017-06-14T15:47:39.348Z,355
2017-06-14T15:48:55.064Z,345
2017-06-14T15:50:10.773Z,345
2017-06-14T15:51:26.279Z,335
2017-06-14T15:52:41.737Z,330
2017-06-14T15:53:57.018Z,330
2017-06-14T15:55:12.559Z,325
2017-06-14T15:56:28.070Z,315
2017-06-14T15:57:43.616Z,305
2017-06-14T15:58:59.154Z,305
2017-06-14T16:00:14.592Z,305
2017-06-14T16:01:30.069Z,300
2017-06-14T16:02:44.254Z,300
2017-06-14T16:03:58.310Z,295
2017-06-14T16:05:13.804Z,295
2017-06-14T16:06:29.399Z,290
2017-06-14T16:07:45.073Z,290
2017-06-14T16:09:00.539Z,285
2017-06-14T16:10:16.074Z,285
2017-06-14T16:11:31.592Z,280
2017-06-14T16:12:47.117Z,280
2017-06-14T16:14:02.604Z,275
2017-06-14T16:15:18.289Z,270
2017-06-14T16:16:33.824Z,265
2017-06-14T16:17:49.306Z,255
2017-06-14T16:19:04.791Z,250
2017-06-14T16:20:20.253Z,250
2017-06-14T16:22:05.122Z,245
2017-06-14T16:23:20.698Z,245
2017-06-14T16:24:36.176Z,245
2017-06-14T16:25:50.334Z,245
2017-06-14T16:27:05.849Z,240
2017-06-14T16:28:21.379Z,235
2017-06-14T16:29:35.545Z,225
2017-06-14T16:30:51.023Z,225
2017-06-14T16:32:06.505Z,220
2017-06-14T16:33:22.385Z,220
2017-06-14T16:34:37.850Z,220
2017-06-14T16:35:52.265Z,215
2017-06-14T16:37:07.908Z,215
2017-06-14T16:38:23.474Z,215
2017-06-14T16:39:38.640Z,215
2017-06-14T16:40:53.752Z,215
2017-06-14T16:42:09.230Z,215
2017-06-14T16:43:24.893Z,215
2017-06-14T16:44:40.338Z,210
2017-06-14T16:45:55.881Z,210
2017-06-14T16:47:11.385Z,210
2017-06-14T16:48:26.946Z,205
2017-06-14T16:49:42.480Z,205
2017-06-14T16:50:58.031Z,205
2017-06-14T16:52:13.536Z,205
2017-06-14T16:53:29.020Z,200
2017-06-14T16:54:44.568Z,200
2017-06-14T16:56:00.040Z,200
2017-06-14T16:57:15.750Z,200
2017-06-14T16:58:31.297Z,200
2017-06-14T16:59:47.042Z,200
2017-06-14T17:01:01.208Z,200
2017-06-14T17:02:16.728Z,195
2017-06-14T17:03:30.914Z,195
2017-06-14T17:04:45.032Z,195
2017-06-14T17:06:00.347Z,195
2017-06-14T17:07:14.538Z,195
2017-06-14T17:08:29.993Z,195
2017-06-14T17:09:45.446Z,190
2017-06-14T17:11:00.948Z,190
2017-06-14T17:12:16.447Z,190
2017-06-14T17:13:32.000Z,190
2017-06-14T17:14:47.517Z,190
2017-06-14T17:16:03.000Z,185
2017-06-14T17:17:17.126Z,185
2017-06-14T17:18:32.639Z,185
2017-06-14T17:19:48.106Z,185
2017-06-14T17:21:03.605Z,185
2017-06-14T17:22:19.106Z,185